Time;durP1;ratioP1;P1;durP2;ratioP2;P2;SDS_P1;SDS_P2;PMS_P1;PMS_P2;Temp;Humidity;BMP_temperature;BMP_pressure;BME280_temperature;BME280_humidity;BME280_pressure;Samples;Min_cycle;Max_cycle;Signal;HPM_P1;HPM_P2
2022/12/18 00:01:48;;;;;;;101.40;33.83;;;-2.00;99.90;;;;;;5035370;28;20059;-73
2022/12/18 00:04:25;;;;;;;94.20;31.13;;;-2.00;99.90;;;;;;5048746;28;20059;-73
2022/12/18 00:06:51;;;;;;;103.07;32.17;;;-2.10;99.90;;;;;;5055294;28;20021;-73
2022/12/18 00:09:16;;;;;;;104.38;33.75;;;-2.10;99.90;;;;;;5045456;28;20112;-73
2022/12/18 00:11:42;;;;;;;96.10;31.38;;;-2.10;99.90;;;;;;5054466;28;20048;-74
2022/12/18 00:14:10;;;;;;;101.82;32.35;;;-2.10;99.90;;;;;;5055016;28;20025;-73
2022/12/18 00:16:36;;;;;;;93.32;31.67;;;-2.10;99.90;;;;;;5054901;28;20417;-73
2022/12/18 00:19:03;;;;;;;82.53;29.75;;;-2.10;99.90;;;;;;5054378;28;20037;-73
2022/12/18 00:21:33;;;;;;;111.28;31.92;;;-2.10;99.90;;;;;;5054804;28;20025;-73
2022/12/18 00:24:00;;;;;;;84.05;29.83;;;-2.10;99.90;;;;;;5054998;28;20039;-74
2022/12/18 00:26:31;;;;;;;77.13;27.33;;;-2.10;99.90;;;;;;5054216;28;20028;-73
2022/12/18 00:29:15;;;;;;;79.03;29.30;;;-2.10;99.90;;;;;;5053209;28;20068;-73
2022/12/18 00:31:42;;;;;;;76.25;27.13;;;-2.20;99.90;;;;;;5053153;28;20076;-73
2022/12/18 00:34:11;;;;;;;92.07;30.80;;;-2.20;99.90;;;;;;5054141;28;20473;-73
2022/12/18 00:36:36;;;;;;;75.97;26.98;;;-2.30;99.90;;;;;;5054734;28;20028;-73
2022/12/18 00:39:04;;;;;;;100.85;32.17;;;-2.30;99.90;;;;;;5054321;28;20384;-73
2022/12/18 00:44:17;;;;;;;77.97;28.30;;;-2.40;99.90;;;;;;5055406;28;20031;-73
2022/12/18 00:46:43;;;;;;;76.93;29.20;;;-2.30;99.90;;;;;;5054191;28;20097;-72
2022/12/18 00:49:09;;;;;;;78.50;27.27;;;-2.30;99.90;;;;;;5054489;28;20062;-73
2022/12/18 00:51:35;;;;;;;78.18;28.58;;;-2.40;99.90;;;;;;5054424;28;20028;-72
2022/12/18 00:54:01;;;;;;;81.45;27.95;;;-2.40;99.90;;;;;;5043983;28;20022;-73
2022/12/18 00:56:26;;;;;;;76.45;28.48;;;-2.40;99.90;;;;;;5028740;28;20471;-73
2022/12/18 00:58:52;;;;;;;80.70;29.38;;;-2.40;99.90;;;;;;5033681;28;20203;-72
2022/12/18 01:01:18;;;;;;;76.47;27.63;;;-2.30;99.90;;;;;;5056387;28;20493;-73
2022/12/18 01:03:45;;;;;;;74.63;30.85;;;-2.40;99.90;;;;;;5054425;28;20028;-74
2022/12/18 01:06:12;;;;;;;81.68;30.27;;;-2.40;99.90;;;;;;5054189;28;20029;-73
2022/12/18 01:08:38;;;;;;;80.13;29.88;;;-2.40;99.90;;;;;;5053656;28;20049;-74
2022/12/18 01:11:12;;;;;;;77.13;28.40;;;-2.40;99.90;;;;;;5053890;28;20017;-72
2022/12/18 01:13:39;;;;;;;68.32;26.35;;;-2.30;99.90;;;;;;5055616;28;20324;-73
2022/12/18 01:16:05;;;;;;;76.63;25.55;;;-2.30;99.90;;;;;;5053592;28;20380;-73
2022/12/18 01:18:30;;;;;;;81.30;27.50;;;-2.40;99.90;;;;;;5053865;28;20033;-73
2022/12/18 01:20:56;;;;;;;81.60;29.77;;;-2.40;99.90;;;;;;5053439;28;20124;-73
2022/12/18 01:23:22;;;;;;;85.95;29.63;;;-2.40;99.90;;;;;;5053221;28;20060;-73
2022/12/18 01:25:48;;;;;;;78.15;27.75;;;-2.40;99.90;;;;;;5053464;28;20033;-74
2022/12/18 01:28:13;;;;;;;92.85;29.70;;;-2.50;99.90;;;;;;5053416;28;20565;-73
2022/12/18 01:30:39;;;;;;;89.30;30.60;;;-2.40;99.90;;;;;;5053550;28;20052;-73
2022/12/18 01:33:05;;;;;;;77.75;26.98;;;-2.40;99.90;;;;;;5053931;28;20354;-74
2022/12/18 01:35:31;;;;;;;68.05;26.27;;;-2.40;99.90;;;;;;5054108;28;20021;-74
2022/12/18 01:37:57;;;;;;;71.57;26.67;;;-2.40;99.90;;;;;;5055240;28;20439;-74
2022/12/18 01:40:23;;;;;;;80.28;25.58;;;-2.40;99.90;;;;;;5057150;28;20033;-73
2022/12/18 01:42:55;;;;;;;61.33;24.30;;;-2.40;99.90;;;;;;5045521;28;20031;-73
2022/12/18 01:45:29;;;;;;;66.60;26.52;;;-2.50;99.90;;;;;;5053420;28;20477;-73
2022/12/18 01:48:02;;;;;;;68.43;25.80;;;-2.50;99.90;;;;;;5053375;28;20086;-73
2022/12/18 01:50:33;;;;;;;73.05;25.13;;;-2.50;99.90;;;;;;5052930;28;20029;-73
2022/12/18 01:53:13;;;;;;;70.07;27.50;;;-2.50;99.90;;;;;;5052621;28;20115;-73
2022/12/18 01:55:51;;;;;;;69.72;26.95;;;-2.50;99.90;;;;;;5053204;28;20541;-73
2022/12/18 01:58:18;;;;;;;67.20;26.63;;;-2.60;99.90;;;;;;5052244;28;20033;-73
2022/12/18 02:00:44;;;;;;;66.70;25.92;;;-2.60;99.90;;;;;;5053151;28;20021;-72
2022/12/18 02:03:10;;;;;;;65.38;26.30;;;-2.50;99.90;;;;;;5052713;28;20037;-73
2022/12/18 02:06:09;;;;;;;70.03;27.33;;;-2.50;99.90;;;;;;5052472;28;20017;-74
2022/12/18 02:08:48;;;;;;;62.58;25.85;;;-2.60;99.90;;;;;;5052901;28;20040;-74
2022/12/18 02:11:25;;;;;;;67.00;25.85;;;-2.60;99.90;;;;;;5052133;28;20028;-72
2022/12/18 02:14:16;;;;;;;69.53;24.48;;;-2.60;99.90;;;;;;5038865;28;20017;-73
2022/12/18 02:17:16;;;;;;;63.53;24.27;;;-2.60;99.90;;;;;;5052930;28;20036;-73
2022/12/18 02:19:53;;;;;;;52.78;22.83;;;-2.60;99.90;;;;;;5030451;28;20029;-72
2022/12/18 02:22:35;;;;;;;62.92;26.48;;;-2.60;99.90;;;;;;5058715;28;20043;-73
2022/12/18 02:25:13;;;;;;;58.60;24.50;;;-2.60;99.90;;;;;;5051850;28;20112;-73
2022/12/18 02:27:40;;;;;;;65.45;24.83;;;-2.70;99.90;;;;;;5052170;28;20568;-72
2022/12/18 02:30:08;;;;;;;66.90;25.98;;;-2.70;99.90;;;;;;5052284;28;20021;-73
2022/12/18 02:32:48;;;;;;;64.15;25.60;;;-2.70;99.90;;;;;;5051672;28;20060;-73
2022/12/18 02:35:24;;;;;;;63.50;23.63;;;-2.70;99.90;;;;;;5052652;28;20485;-73
2022/12/18 02:37:55;;;;;;;58.72;25.40;;;-2.70;99.90;;;;;;5052450;28;20500;-73
2022/12/18 02:40:24;;;;;;;63.63;25.02;;;-2.70;99.90;;;;;;5052158;28;20021;-73
2022/12/18 02:42:50;;;;;;;60.75;23.25;;;-2.80;99.90;;;;;;5048836;28;20396;-74
2022/12/18 02:45:15;;;;;;;61.75;25.60;;;-2.70;99.90;;;;;;5042932;28;20025;-73
2022/12/18 02:47:45;;;;;;;55.05;23.10;;;-2.80;99.90;;;;;;5051380;28;20067;-73
2022/12/18 02:50:25;;;;;;;66.50;26.63;;;-2.80;99.90;;;;;;5052366;28;20059;-74
2022/12/18 02:53:04;;;;;;;57.70;23.95;;;-2.80;99.90;;;;;;5051508;28;20337;-75
2022/12/18 02:55:53;;;;;;;58.15;25.58;;;-2.80;99.90;;;;;;5052768;28;20447;-72
2022/12/18 02:58:45;;;;;;;61.70;24.83;;;-2.80;99.90;;;;;;5052322;28;20039;-72
2022/12/18 03:01:49;;;;;;;63.33;24.30;;;-2.90;99.90;;;;;;5045613;28;20036;-72
2022/12/18 03:04:44;;;;;;;64.43;24.60;;;-2.90;99.90;;;;;;5007081;28;20068;-73
2022/12/18 03:07:15;;;;;;;59.33;23.90;;;-2.80;99.90;;;;;;5026056;28;20029;-72
2022/12/18 03:09:46;;;;;;;56.08;23.85;;;-2.90;99.90;;;;;;5052574;28;20035;-73
2022/12/18 03:12:23;;;;;;;62.67;26.17;;;-3.00;99.90;;;;;;5052243;28;20455;-73
2022/12/18 03:15:07;;;;;;;68.45;28.50;;;-3.00;99.90;;;;;;5052242;28;20095;-73
2022/12/18 03:17:34;;;;;;;73.63;27.17;;;-3.10;99.90;;;;;;5057218;28;20028;-74
2022/12/18 03:20:07;;;;;;;70.95;27.70;;;-3.20;99.90;;;;;;5061288;28;20372;-74
2022/12/18 03:22:37;;;;;;;70.40;27.08;;;-3.20;99.90;;;;;;5062221;28;20047;-73
2022/12/18 03:25:08;;;;;;;49.60;19.90;;;-3.30;99.90;;;;;;5060801;28;20036;-73
2022/12/18 03:27:38;;;;;;;70.57;27.30;;;-3.40;99.90;;;;;;5064021;28;20029;-74
2022/12/18 03:30:08;;;;;;;71.00;28.23;;;-3.40;99.90;;;;;;5061207;28;20021;-73
2022/12/18 03:32:50;;;;;;;71.13;29.08;;;-3.40;99.90;;;;;;5052990;28;20450;-73
2022/12/18 03:35:22;;;;;;;72.57;28.35;;;-3.50;99.90;;;;;;5051685;28;20025;-72
2022/12/18 03:37:48;;;;;;;70.85;29.17;;;-3.60;99.90;;;;;;5052498;28;20021;-73
2022/12/18 03:40:14;;;;;;;69.28;27.65;;;-3.60;99.90;;;;;;5055810;28;20500;-73
2022/12/18 03:43:03;;;;;;;69.35;28.17;;;-3.60;99.90;;;;;;5051377;28;20032;-73
2022/12/18 03:45:37;;;;;;;74.53;29.30;;;-3.70;99.90;;;;;;5052672;28;20036;-73
2022/12/18 03:48:28;;;;;;;68.40;27.92;;;-3.70;99.90;;;;;;5052820;28;20503;-73
2022/12/18 03:51:25;;;;;;;74.40;29.08;;;-3.80;99.90;;;;;;5046851;28;20078;-74
2022/12/18 03:54:03;;;;;;;67.28;25.95;;;-3.80;99.90;;;;;;5030611;28;20064;-74
2022/12/18 03:56:33;;;;;;;71.97;27.42;;;-3.80;99.90;;;;;;5051936;28;20476;-73
2022/12/18 03:59:00;;;;;;;71.07;28.35;;;-3.90;99.90;;;;;;5051920;28;20067;-73
2022/12/18 04:01:32;;;;;;;67.05;27.50;;;-3.90;99.90;;;;;;5052276;28;20021;-74
2022/12/18 04:04:00;;;;;;;69.95;27.30;;;-3.90;99.90;;;;;;5054474;28;20028;-73
2022/12/18 04:06:28;;;;;;;68.32;27.40;;;-3.90;99.90;;;;;;5055729;28;20025;-73
2022/12/18 04:08:54;;;;;;;71.30;27.42;;;-3.90;99.90;;;;;;5054992;28;20029;-74
2022/12/18 04:11:19;;;;;;;69.70;26.95;;;-3.90;99.90;;;;;;5054401;28;20029;-73
2022/12/18 04:13:45;;;;;;;63.83;27.58;;;-3.90;99.90;;;;;;5055707;28;20029;-72
2022/12/18 04:16:11;;;;;;;62.35;26.55;;;-4.00;99.90;;;;;;5055494;28;20028;-72
2022/12/18 04:18:37;;;;;;;69.03;28.13;;;-3.90;99.90;;;;;;5054174;28;20032;-74
2022/12/18 04:21:03;;;;;;;56.30;25.80;;;-4.00;99.90;;;;;;5054850;28;20021;-73
2022/12/18 04:23:28;;;;;;;61.00;25.20;;;-4.00;99.90;;;;;;5054915;28;20412;-74
2022/12/18 04:25:54;;;;;;;61.88;25.63;;;-4.00;99.90;;;;;;5054313;28;20023;-72
2022/12/18 04:28:20;;;;;;;67.28;25.27;;;-4.00;99.90;;;;;;5054795;28;20055;-73
2022/12/18 04:30:46;;;;;;;63.80;26.65;;;-4.10;99.90;;;;;;5054924;28;20021;-73
2022/12/18 04:33:18;;;;;;;63.38;25.17;;;-4.10;99.90;;;;;;5054124;28;20127;-74
2022/12/18 04:35:43;;;;;;;62.22;23.38;;;-4.10;99.90;;;;;;5055356;28;20021;-73
2022/12/18 04:38:09;;;;;;;61.17;24.63;;;-4.20;99.90;;;;;;5055353;28;20091;-74
2022/12/18 04:40:36;;;;;;;57.67;23.98;;;-4.20;99.90;;;;;;5054781;28;20059;-73
2022/12/18 04:43:11;;;;;;;58.25;23.88;;;-4.20;99.90;;;;;;5053998;28;20048;-73
2022/12/18 04:45:37;;;;;;;56.60;24.30;;;-4.20;99.90;;;;;;5053687;28;20018;-73
2022/12/18 04:48:03;;;;;;;53.70;23.52;;;-4.30;99.90;;;;;;5053848;28;20033;-73
2022/12/18 04:50:30;;;;;;;58.78;23.45;;;-4.30;99.90;;;;;;5054471;28;20033;-72
2022/12/18 04:52:56;;;;;;;58.08;23.73;;;-4.30;99.90;;;;;;5053274;28;20515;-74
2022/12/18 04:55:21;;;;;;;59.58;25.48;;;-4.30;99.90;;;;;;5054364;28;20032;-74
2022/12/18 04:57:47;;;;;;;58.53;23.27;;;-4.30;99.90;;;;;;5054514;28;20025;-73
2022/12/18 05:00:13;;;;;;;61.47;25.52;;;-4.30;99.90;;;;;;5053499;28;20020;-73
2022/12/18 05:02:41;;;;;;;57.53;23.85;;;-4.30;99.90;;;;;;5054491;28;20423;-74
2022/12/18 05:05:08;;;;;;;49.70;21.48;;;-4.10;99.90;;;;;;5054070;28;20033;-73
2022/12/18 05:07:33;;;;;;;57.20;24.15;;;-4.40;99.90;;;;;;5053114;28;20114;-73
2022/12/18 05:09:59;;;;;;;53.42;22.88;;;-4.40;99.90;;;;;;5053745;28;20033;-73
2022/12/18 05:12:24;;;;;;;54.15;21.33;;;-4.40;99.90;;;;;;5054602;28;20125;-73
2022/12/18 05:14:50;;;;;;;54.15;21.85;;;-4.40;99.90;;;;;;5051873;28;20028;-75
2022/12/18 05:17:16;;;;;;;50.72;21.77;;;-4.40;99.90;;;;;;5034563;28;20018;-73
2022/12/18 05:19:41;;;;;;;55.10;22.15;;;-4.40;99.90;;;;;;5047124;28;20377;-73
2022/12/18 05:22:07;;;;;;;49.53;20.98;;;-4.30;99.90;;;;;;5053388;28;20031;-74
2022/12/18 05:24:33;;;;;;;51.47;21.45;;;-4.40;99.90;;;;;;5054420;28;20036;-73
2022/12/18 05:26:58;;;;;;;45.47;19.85;;;-4.30;99.90;;;;;;5053200;28;20032;-73
2022/12/18 05:29:24;;;;;;;46.90;20.42;;;-4.40;99.90;;;;;;5053320;28;20079;-74
2022/12/18 05:31:49;;;;;;;44.10;20.65;;;-4.30;99.90;;;;;;5052960;28;20041;-74
2022/12/18 05:34:15;;;;;;;43.88;20.77;;;-4.40;99.90;;;;;;5053784;28;20025;-74
2022/12/18 05:36:41;;;;;;;44.55;19.90;;;-4.30;99.90;;;;;;5056648;28;20021;-74
2022/12/18 05:39:07;;;;;;;48.55;21.58;;;-4.40;99.90;;;;;;5059216;28;20116;-73
2022/12/18 05:41:32;;;;;;;44.60;19.77;;;-4.30;99.90;;;;;;5053653;28;20052;-73
2022/12/18 05:43:59;;;;;;;49.72;19.98;;;-4.40;99.90;;;;;;5052091;28;20035;-74
2022/12/18 05:46:25;;;;;;;46.75;20.27;;;-4.30;99.90;;;;;;5053917;28;20029;-75
2022/12/18 05:48:51;;;;;;;42.65;19.77;;;-4.30;99.90;;;;;;5053112;28;20091;-73
2022/12/18 05:51:20;;;;;;;48.17;21.80;;;-4.30;99.90;;;;;;5054196;28;20052;-73
2022/12/18 05:53:46;;;;;;;41.05;19.25;;;-4.30;99.90;;;;;;5045660;28;20018;-73
2022/12/18 05:56:18;;;;;;;45.85;20.50;;;-4.40;99.90;;;;;;5037362;28;20021;-75
2022/12/18 05:58:44;;;;;;;49.28;20.27;;;-4.40;99.90;;;;;;5031547;28;20432;-74
2022/12/18 06:01:12;;;;;;;49.13;20.95;;;-4.40;99.90;;;;;;5031168;28;20087;-73
2022/12/18 06:03:38;;;;;;;43.38;19.27;;;-4.40;99.90;;;;;;5029450;28;20486;-73
2022/12/18 06:06:04;;;;;;;47.20;19.85;;;-4.40;99.90;;;;;;5030258;28;20029;-73
2022/12/18 06:08:29;;;;;;;44.78;20.45;;;-4.40;99.90;;;;;;5030362;28;20379;-74
2022/12/18 06:10:55;;;;;;;47.83;21.98;;;-4.50;99.90;;;;;;5030831;28;20401;-75
2022/12/18 06:13:21;;;;;;;38.55;18.15;;;-4.60;99.90;;;;;;5030118;28;20071;-74
2022/12/18 06:15:49;;;;;;;49.63;20.38;;;-4.60;99.90;;;;;;5030632;28;20025;-73
2022/12/18 06:18:15;;;;;;;41.50;18.00;;;-4.60;99.90;;;;;;5030322;28;20125;-73
2022/12/18 06:20:41;;;;;;;38.63;17.90;;;-4.60;99.90;;;;;;5031129;28;20048;-74
2022/12/18 06:23:07;;;;;;;38.65;17.63;;;-4.60;99.90;;;;;;5030286;28;20497;-74
2022/12/18 06:25:33;;;;;;;41.67;19.70;;;-4.60;99.90;;;;;;5030501;28;20044;-74
2022/12/18 06:27:59;;;;;;;45.22;20.55;;;-4.60;99.90;;;;;;5030927;28;20034;-74
2022/12/18 06:30:25;;;;;;;53.35;20.58;;;-4.60;99.90;;;;;;5030850;28;20021;-74
2022/12/18 06:32:50;;;;;;;40.53;18.85;;;-4.60;99.90;;;;;;5030128;28;20111;-75
2022/12/18 06:35:16;;;;;;;38.90;16.73;;;-4.60;99.90;;;;;;5030735;28;20048;-75
2022/12/18 06:37:42;;;;;;;43.67;18.27;;;-4.60;99.90;;;;;;5031075;28;20017;-76
2022/12/18 06:40:08;;;;;;;39.88;18.05;;;-4.60;99.90;;;;;;5028160;28;20026;-74
2022/12/18 06:42:33;;;;;;;39.22;18.35;;;-4.70;99.90;;;;;;5034213;28;20756;-76
2022/12/18 06:44:59;;;;;;;40.78;18.45;;;-4.70;99.90;;;;;;5035076;28;20029;-75
2022/12/18 06:47:25;;;;;;;42.60;19.02;;;-4.70;99.90;;;;;;5034385;28;20496;-75
2022/12/18 06:49:50;;;;;;;39.40;17.98;;;-4.70;99.90;;;;;;5035989;28;20128;-73
2022/12/18 06:52:16;;;;;;;42.42;18.95;;;-4.70;99.90;;;;;;5036471;28;20033;-75
2022/12/18 06:54:41;;;;;;;37.70;18.58;;;-4.70;99.90;;;;;;5037968;28;20148;-74
2022/12/18 06:57:07;;;;;;;36.20;17.25;;;-4.70;99.90;;;;;;5033735;28;20493;-75
2022/12/18 06:59:33;;;;;;;38.40;18.20;;;-4.70;99.90;;;;;;5033330;28;20022;-74
2022/12/18 07:02:01;;;;;;;34.42;18.20;;;-4.70;99.90;;;;;;5031527;28;20025;-74
2022/12/18 07:04:30;;;;;;;35.28;18.60;;;-4.80;99.90;;;;;;5032745;28;20025;-74
2022/12/18 07:06:56;;;;;;;34.88;17.10;;;-4.80;99.90;;;;;;5028127;28;20025;-75
2022/12/18 07:09:21;;;;;;;38.25;20.13;;;-4.80;99.90;;;;;;5030031;28;20101;-74
2022/12/18 07:11:47;;;;;;;36.75;18.38;;;-4.70;99.90;;;;;;5029961;28;20025;-73
2022/12/18 07:14:12;;;;;;;43.03;20.20;;;-4.80;99.90;;;;;;5028121;28;20056;-73
2022/12/18 07:16:38;;;;;;;38.33;19.85;;;-4.80;99.90;;;;;;5030707;28;20103;-74
2022/12/18 07:19:04;;;;;;;35.10;18.75;;;-4.80;99.90;;;;;;5029586;28;20393;-73
2022/12/18 07:21:29;;;;;;;40.35;20.33;;;-4.80;99.90;;;;;;5029096;28;20115;-75
2022/12/18 07:23:55;;;;;;;38.85;19.50;;;-4.80;99.90;;;;;;5029197;28;20546;-74
2022/12/18 07:26:21;;;;;;;32.92;18.00;;;-4.80;99.90;;;;;;5028495;28;20429;-74
2022/12/18 07:28:48;;;;;;;39.92;20.73;;;-4.80;99.90;;;;;;5029288;28;20095;-72
2022/12/18 07:31:17;;;;;;;38.83;19.45;;;-4.80;99.90;;;;;;5029407;28;20068;-74
2022/12/18 07:33:43;;;;;;;44.65;21.15;;;-4.80;99.90;;;;;;5029110;28;20029;-74
2022/12/18 07:36:10;;;;;;;40.05;19.70;;;-4.80;99.90;;;;;;5031869;28;20030;-74
2022/12/18 07:38:36;;;;;;;42.40;21.27;;;-4.80;99.90;;;;;;5043895;28;20045;-74
2022/12/18 07:41:11;;;;;;;41.40;19.88;;;-4.80;99.90;;;;;;5034292;28;20030;-73
2022/12/18 07:43:37;;;;;;;38.78;18.80;;;-4.80;99.90;;;;;;5035999;28;20053;-74
2022/12/18 07:46:04;;;;;;;38.35;19.10;;;-4.80;99.90;;;;;;5030087;28;20121;-73
2022/12/18 07:48:30;;;;;;;41.30;20.15;;;-4.70;99.90;;;;;;5031202;28;20400;-76
2022/12/18 07:51:05;;;;;;;41.85;20.40;;;-4.70;99.90;;;;;;5032153;28;20097;-74
2022/12/18 07:53:31;;;;;;;35.83;20.42;;;-4.70;99.90;;;;;;5032753;28;20029;-75
2022/12/18 07:56:02;;;;;;;35.70;17.92;;;-4.60;99.90;;;;;;5036267;28;20026;-75
2022/12/18 07:58:29;;;;;;;36.03;18.55;;;-4.60;99.90;;;;;;5032522;28;20068;-74
2022/12/18 08:01:01;;;;;;;34.15;17.58;;;-4.60;99.90;;;;;;5031587;28;20421;-74
2022/12/18 08:03:27;;;;;;;38.50;18.13;;;-4.60;99.90;;;;;;5032282;28;20037;-75
2022/12/18 08:05:52;;;;;;;37.38;17.20;;;-4.60;99.90;;;;;;5033197;28;20026;-74
2022/12/18 08:08:18;;;;;;;33.55;18.17;;;-4.50;99.90;;;;;;5033418;28;20048;-76
2022/12/18 08:10:43;;;;;;;31.30;16.73;;;-4.50;99.90;;;;;;5033292;28;20078;-74
2022/12/18 08:13:10;;;;;;;36.00;17.33;;;-4.50;99.90;;;;;;5034706;28;20389;-73
2022/12/18 08:15:36;;;;;;;35.88;16.75;;;-4.50;99.90;;;;;;5034644;28;20025;-73
2022/12/18 08:18:01;;;;;;;35.55;17.33;;;-4.50;99.90;;;;;;5032703;28;20032;-73
2022/12/18 08:20:27;;;;;;;34.33;17.10;;;-4.50;99.90;;;;;;5033623;28;20025;-73
2022/12/18 08:22:53;;;;;;;31.00;16.50;;;-4.50;99.90;;;;;;5033780;28;20025;-73
2022/12/18 08:25:18;;;;;;;38.13;17.67;;;-4.50;99.90;;;;;;5034953;28;20481;-73
2022/12/18 08:27:44;;;;;;;36.00;16.52;;;-4.50;99.90;;;;;;5036145;28;20056;-74
2022/12/18 08:30:10;;;;;;;30.02;15.38;;;-4.40;99.90;;;;;;5034309;28;20025;-74
2022/12/18 08:32:36;;;;;;;31.15;16.38;;;-4.40;99.90;;;;;;5032979;28;20486;-74
2022/12/18 08:35:01;;;;;;;31.23;16.58;;;-4.40;99.90;;;;;;5034266;28;20032;-72
2022/12/18 08:37:27;;;;;;;32.92;16.17;;;-4.40;99.90;;;;;;5032878;28;20049;-73
2022/12/18 08:39:53;;;;;;;31.45;17.55;;;-4.30;99.90;;;;;;5031261;28;20470;-75
2022/12/18 08:45:03;;;;;;;31.73;16.98;;;-4.30;99.90;;;;;;5033006;28;20071;-74
2022/12/18 08:47:29;;;;;;;30.15;15.38;;;-4.20;99.90;;;;;;5032944;28;20526;-74
2022/12/18 08:49:54;;;;;;;31.55;17.38;;;-4.20;99.90;;;;;;5034811;28;20017;-74
2022/12/18 08:52:20;;;;;;;31.88;17.08;;;-4.10;99.90;;;;;;5032240;28;20013;-74
2022/12/18 08:54:45;;;;;;;32.85;17.13;;;-4.00;99.90;;;;;;5032996;28;20029;-74
2022/12/18 08:57:11;;;;;;;33.95;16.73;;;-4.00;99.90;;;;;;5031929;28;20017;-74
2022/12/18 08:59:37;;;;;;;29.00;15.60;;;-4.00;99.90;;;;;;5031686;28;20033;-74
2022/12/18 09:02:02;;;;;;;36.05;16.35;;;-3.90;99.90;;;;;;5031781;28;20120;-74
2022/12/18 09:04:28;;;;;;;30.45;16.08;;;-3.90;99.90;;;;;;5032969;28;20035;-73
2022/12/18 09:06:56;;;;;;;32.20;16.05;;;-3.90;99.90;;;;;;5031207;28;20041;-73
2022/12/18 09:09:22;;;;;;;27.80;15.50;;;-3.90;99.90;;;;;;5030745;28;20044;-74
2022/12/18 09:11:47;;;;;;;32.15;17.02;;;-3.80;99.90;;;;;;5030346;28;20026;-73
2022/12/18 09:14:13;;;;;;;33.15;16.60;;;-3.80;99.90;;;;;;5032901;28;20041;-75
2022/12/18 09:16:39;;;;;;;34.55;17.00;;;-3.70;99.90;;;;;;5032540;28;20029;-73
2022/12/18 09:19:05;;;;;;;33.17;17.02;;;-3.70;99.90;;;;;;5032531;28;20020;-74
2022/12/18 09:21:33;;;;;;;28.67;15.90;;;-3.50;99.90;;;;;;5032866;28;20068;-74
2022/12/18 09:23:59;;;;;;;30.30;16.27;;;-3.50;99.90;;;;;;5032399;28;20401;-74
2022/12/18 09:26:26;;;;;;;36.22;16.20;;;-3.50;99.90;;;;;;5032202;28;20029;-75
2022/12/18 09:28:52;;;;;;;33.17;15.95;;;-3.40;99.90;;;;;;5030941;28;20065;-74
2022/12/18 09:31:20;;;;;;;28.05;16.50;;;-3.40;99.90;;;;;;5032021;28;20567;-75
2022/12/18 09:33:56;;;;;;;32.85;16.30;;;-3.40;99.90;;;;;;5031401;28;20091;-74
2022/12/18 09:36:22;;;;;;;51.28;19.27;;;-3.30;99.90;;;;;;5028724;28;20037;-74
2022/12/18 09:38:47;;;;;;;31.33;16.85;;;-3.30;99.90;;;;;;5040802;28;20029;-72
2022/12/18 09:41:30;;;;;;;30.42;15.05;;;-3.20;99.90;;;;;;5033454;28;20380;-74
2022/12/18 09:44:02;;;;;;;32.08;16.10;;;-3.10;99.90;;;;;;5031614;28;20026;-73
2022/12/18 09:46:38;;;;;;;28.00;15.18;;;-3.10;99.90;;;;;;5032161;28;20053;-73
2022/12/18 09:49:11;;;;;;;29.23;14.43;;;-3.00;99.90;;;;;;5031090;28;20037;-74
2022/12/18 09:51:42;;;;;;;30.00;16.13;;;-2.80;99.90;;;;;;5032789;28;20038;-74
2022/12/18 09:54:16;;;;;;;30.80;16.10;;;-3.00;99.90;;;;;;5029774;28;20377;-73
2022/12/18 09:56:43;;;;;;;26.20;14.88;;;-2.90;99.90;;;;;;5035440;28;20075;-73
2022/12/18 09:59:23;;;;;;;31.23;15.75;;;-2.80;99.90;;;;;;5032922;28;21688;-73
2022/12/18 10:01:49;;;;;;;;;;;-2.70;99.90;;;;;;5032379;28;20026;-74
2022/12/18 10:04:15;;;;;;;30.25;15.10;;;-2.70;99.90;;;;;;5027741;28;19948;-73
2022/12/18 10:06:58;;;;;;;28.38;15.20;;;-2.60;99.90;;;;;;5033708;28;20021;-77
2022/12/18 10:09:37;;;;;;;25.52;15.30;;;-2.50;99.90;;;;;;5033270;28;20170;-73
2022/12/18 10:12:09;;;;;;;26.65;14.75;;;-2.50;99.90;;;;;;5036626;28;20028;-74
2022/12/18 10:14:57;;;;;;;32.08;14.70;;;-2.40;99.90;;;;;;5031413;28;20034;-74
2022/12/18 10:17:28;;;;;;;29.10;14.93;;;-2.40;99.90;;;;;;5031812;28;20025;-73
2022/12/18 10:20:10;;;;;;;28.15;15.20;;;-2.30;99.90;;;;;;5030498;28;20030;-72
2022/12/18 10:22:45;;;;;;;31.67;16.42;;;-2.30;99.90;;;;;;5033748;28;20021;-72
2022/12/18 10:25:26;;;;;;;25.05;14.65;;;-2.20;99.90;;;;;;5042393;28;20098;-74
2022/12/18 10:27:55;;;;;;;30.10;15.95;;;-2.10;99.90;;;;;;5042982;28;20461;-73
2022/12/18 10:30:23;;;;;;;37.07;15.07;;;-2.10;99.90;;;;;;5040228;28;20025;-73
2022/12/18 10:32:49;;;;;;;32.65;15.95;;;-2.00;99.90;;;;;;5037445;28;20276;-74
2022/12/18 10:35:23;;;;;;;24.92;15.35;;;-2.00;99.90;;;;;;5038359;28;20037;-72
2022/12/18 10:38:22;;;;;;;26.52;13.95;;;-1.90;99.90;;;;;;5027596;28;20353;-73
2022/12/18 10:40:59;;;;;;;29.58;14.38;;;-2.60;99.90;;;;;;5030772;28;20061;-73
2022/12/18 10:43:31;;;;;;;30.42;15.93;;;-1.90;99.90;;;;;;5030984;28;20025;-72
2022/12/18 10:46:02;;;;;;;27.23;14.52;;;-1.90;99.90;;;;;;5029193;28;20037;-73
2022/12/18 10:48:29;;;;;;;24.83;14.55;;;-1.80;99.90;;;;;;5030975;28;20034;-73
2022/12/18 10:50:56;;;;;;;26.83;15.05;;;-1.80;99.90;;;;;;5032973;28;20382;-72
2022/12/18 10:53:25;;;;;;;28.05;14.85;;;-1.70;99.90;;;;;;5029438;28;20029;-74
2022/12/18 10:55:53;;;;;;;25.38;15.07;;;-1.70;99.90;;;;;;5027561;28;20052;-74
2022/12/18 10:58:27;;;;;;;28.95;16.35;;;-1.60;99.90;;;;;;5029185;28;20164;-73
2022/12/18 11:01:03;;;;;;;22.63;13.85;;;-1.60;99.90;;;;;;5029652;28;20021;-73
2022/12/18 11:03:39;;;;;;;31.30;14.18;;;-1.60;99.90;;;;;;5030270;28;20040;-73
2022/12/18 11:06:15;;;;;;;27.58;14.65;;;-1.50;99.90;;;;;;5029647;28;20033;-73
2022/12/18 11:08:43;;;;;;;24.30;13.88;;;-1.50;99.90;;;;;;5030184;28;20029;-73
2022/12/18 11:11:23;;;;;;;25.73;15.18;;;-1.50;99.90;;;;;;5028931;28;20446;-72
2022/12/18 11:14:05;;;;;;;32.70;14.45;;;-1.40;99.90;;;;;;5032189;28;20113;-72
2022/12/18 11:16:42;;;;;;;26.27;14.60;;;-1.40;99.90;;;;;;5032347;28;20080;-73
2022/12/18 11:19:21;;;;;;;24.63;14.05;;;-1.40;99.90;;;;;;5031462;28;20017;-71
2022/12/18 11:21:48;;;;;;;29.25;14.00;;;-1.30;99.90;;;;;;5030208;28;20033;-72
2022/12/18 11:24:35;;;;;;;31.45;15.70;;;-1.20;99.90;;;;;;5034101;28;20022;-72
2022/12/18 11:27:03;;;;;;;32.15;16.70;;;-1.20;99.90;;;;;;5025854;28;20057;-72
2022/12/18 11:29:35;;;;;;;26.77;15.45;;;-1.10;99.90;;;;;;5031005;28;20040;-73
2022/12/18 11:32:29;;;;;;;25.27;14.48;;;-1.10;99.90;;;;;;5027505;28;20034;-72
2022/12/18 11:35:11;;;;;;;29.48;14.38;;;-0.70;99.90;;;;;;5028482;28;20354;-72
2022/12/18 11:37:39;;;;;;;35.25;16.40;;;-1.00;99.90;;;;;;5031136;28;20029;-72
2022/12/18 11:40:19;;;;;;;28.92;13.75;;;-1.00;99.90;;;;;;5025578;28;20030;-71
2022/12/18 11:42:51;;;;;;;26.60;14.88;;;-0.90;99.90;;;;;;5030200;28;20030;-72
2022/12/18 11:45:47;;;;;;;27.00;14.15;;;-0.90;99.90;;;;;;5027328;28;20038;-73
2022/12/18 11:48:28;;;;;;;26.88;14.63;;;-0.80;99.90;;;;;;5026171;28;20119;-72
2022/12/18 11:50:59;;;;;;;30.92;15.70;;;-0.80;99.90;;;;;;5030916;28;20400;-72
2022/12/18 11:53:26;;;;;;;23.02;13.55;;;-0.80;99.90;;;;;;5032592;28;20026;-72
2022/12/18 11:56:32;;;;;;;25.80;13.75;;;-0.70;99.90;;;;;;5031966;28;20020;-73
2022/12/18 11:59:25;;;;;;;26.83;13.57;;;-0.70;99.90;;;;;;4990353;28;20534;-72
2022/12/18 12:01:51;;;;;;;22.67;12.95;;;-0.70;99.90;;;;;;5025198;28;20029;-72
2022/12/18 12:05:01;;;;;;;23.17;13.63;;;-0.70;99.90;;;;;;5028161;28;20029;-72
2022/12/18 12:07:42;;;;;;;26.17;14.52;;;-0.60;99.90;;;;;;5031969;28;20068;-72
2022/12/18 12:10:36;;;;;;;25.27;13.82;;;-0.60;99.90;;;;;;5030043;28;20406;-72
2022/12/18 12:13:09;;;;;;;24.48;13.68;;;-0.60;99.90;;;;;;5031541;28;20026;-72
2022/12/18 12:16:01;;;;;;;26.88;13.82;;;-0.60;99.90;;;;;;5032706;28;20048;-71
2022/12/18 12:18:32;;;;;;;26.10;14.30;;;-0.50;99.90;;;;;;5029242;28;20025;-73
2022/12/18 12:21:21;;;;;;;24.73;14.07;;;-0.50;99.90;;;;;;5029436;28;20025;-73
2022/12/18 12:23:50;;;;;;;26.15;14.23;;;-0.50;99.90;;;;;;5026568;28;20481;-73
2022/12/18 12:26:43;;;;;;;29.48;14.75;;;-0.50;99.90;;;;;;5033218;28;20025;-72
2022/12/18 12:29:33;;;;;;;25.83;14.90;;;-0.50;99.90;;;;;;5032934;28;20519;-72
2022/12/18 12:32:11;;;;;;;26.13;13.70;;;-0.40;99.90;;;;;;5030573;28;20456;-72
2022/12/18 12:35:10;;;;;;;26.10;14.68;;;-0.40;99.90;;;;;;5033562;28;20024;-72
2022/12/18 12:38:03;;;;;;;25.45;14.82;;;-0.40;99.90;;;;;;5029563;28;20113;-72
2022/12/18 12:40:35;;;;;;;27.67;14.75;;;-0.40;99.90;;;;;;5032236;28;20045;-71
2022/12/18 12:43:21;;;;;;;27.60;14.57;;;-0.40;99.90;;;;;;5032672;28;20108;-73
2022/12/18 12:45:55;;;;;;;27.10;14.88;;;-0.40;99.90;;;;;;5031068;28;20106;-73
2022/12/18 12:48:48;;;;;;;22.42;13.95;;;-0.50;99.90;;;;;;5032846;28;20120;-73
2022/12/18 12:51:29;;;;;;;25.05;14.63;;;-0.40;99.90;;;;;;5032204;28;20104;-72
2022/12/18 12:53:59;;;;;;;28.58;14.57;;;-0.40;99.90;;;;;;5030259;28;20314;-72